sensor_id;sensor_type;location;lat;lon;timestamp;temperature;humidity
19389;DHT22;9830;41.876;23.474;2022-12-11T00:01:27;10.50;99.90
19389;DHT22;9830;41.876;23.474;2022-12-11T00:03:53;10.40;99.90
19389;DHT22;9830;41.876;23.474;2022-12-11T00:06:21;10.50;99.90
19389;DHT22;9830;41.876;23.474;2022-12-11T00:08:49;10.50;99.90
19389;DHT22;9830;41.876;23.474;2022-12-11T00:11:15;10.50;99.90
19389;DHT22;9830;41.876;23.474;2022-12-11T00:13:42;10.40;99.90
19389;DHT22;9830;41.876;23.474;2022-12-11T00:16:08;10.50;99.90
19389;DHT22;9830;41.876;23.474;2022-12-11T00:18:34;10.50;99.90
19389;DHT22;9830;41.876;23.474;2022-12-11T00:21:06;10.50;99.90
19389;DHT22;9830;41.876;23.474;2022-12-11T00:23:34;10.60;99.90
19389;DHT22;9830;41.876;23.474;2022-12-11T00:26:03;10.50;99.90
19389;DHT22;9830;41.876;23.474;2022-12-11T00:28:29;10.50;99.90
19389;DHT22;9830;41.876;23.474;2022-12-11T00:30:54;10.60;99.90
19389;DHT22;9830;41.876;23.474;2022-12-11T00:33:20;10.50;99.90
19389;DHT22;9830;41.876;23.474;2022-12-11T00:35:46;10.40;99.90
19389;DHT22;9830;41.876;23.474;2022-12-11T00:38:14;10.40;99.90
19389;DHT22;9830;41.876;23.474;2022-12-11T00:40:41;10.40;99.90
19389;DHT22;9830;41.876;23.474;2022-12-11T00:43:06;10.40;99.90
19389;DHT22;9830;41.876;23.474;2022-12-11T00:45:42;10.30;99.90
19389;DHT22;9830;41.876;23.474;2022-12-11T00:48:09;10.30;99.90
19389;DHT22;9830;41.876;23.474;2022-12-11T00:50:35;10.30;99.90
19389;DHT22;9830;41.876;23.474;2022-12-11T00:53:02;10.30;99.90
19389;DHT22;9830;41.876;23.474;2022-12-11T00:55:28;10.30;99.90
19389;DHT22;9830;41.876;23.474;2022-12-11T00:57:55;10.30;99.90
19389;DHT22;9830;41.876;23.474;2022-12-11T01:00:21;10.40;99.90
19389;DHT22;9830;41.876;23.474;2022-12-11T01:02:48;10.40;99.90
19389;DHT22;9830;41.876;23.474;2022-12-11T01:05:14;10.40;99.90
19389;DHT22;9830;41.876;23.474;2022-12-11T01:07:40;10.40;99.90
19389;DHT22;9830;41.876;23.474;2022-12-11T01:10:05;10.40;99.90
19389;DHT22;9830;41.876;23.474;2022-12-11T01:12:55;10.40;99.90
19389;DHT22;9830;41.876;23.474;2022-12-11T01:15:22;10.50;99.90
19389;DHT22;9830;41.876;23.474;2022-12-11T01:17:49;10.50;99.90
19389;DHT22;9830;41.876;23.474;2022-12-11T01:20:17;10.50;99.90
19389;DHT22;9830;41.876;23.474;2022-12-11T01:22:43;10.40;99.90
19389;DHT22;9830;41.876;23.474;2022-12-11T01:25:09;10.40;99.90
19389;DHT22;9830;41.876;23.474;2022-12-11T01:27:36;10.30;99.90
19389;DHT22;9830;41.876;23.474;2022-12-11T01:30:02;10.40;99.90
19389;DHT22;9830;41.876;23.474;2022-12-11T01:32:28;10.40;99.90
19389;DHT22;9830;41.876;23.474;2022-12-11T01:34:54;10.30;99.90
19389;DHT22;9830;41.876;23.474;2022-12-11T01:37:19;10.20;99.90
19389;DHT22;9830;41.876;23.474;2022-12-11T01:39:45;10.30;99.90
19389;DHT22;9830;41.876;23.474;2022-12-11T01:42:17;10.30;99.90
19389;DHT22;9830;41.876;23.474;2022-12-11T01:47:09;10.50;99.90
19389;DHT22;9830;41.876;23.474;2022-12-11T01:49:35;10.40;99.90
19389;DHT22;9830;41.876;23.474;2022-12-11T01:52:15;10.40;99.90
19389;DHT22;9830;41.876;23.474;2022-12-11T01:54:43;10.30;99.90
19389;DHT22;9830;41.876;23.474;2022-12-11T01:57:10;10.30;99.90
19389;DHT22;9830;41.876;23.474;2022-12-11T01:59:40;10.30;99.90
19389;DHT22;9830;41.876;23.474;2022-12-11T02:02:14;10.40;99.90
19389;DHT22;9830;41.876;23.474;2022-12-11T02:04:42;10.30;99.90
19389;DHT22;9830;41.876;23.474;2022-12-11T02:07:08;10.20;99.90
19389;DHT22;9830;41.876;23.474;2022-12-11T02:09:36;10.20;99.90
19389;DHT22;9830;41.876;23.474;2022-12-11T02:15:09;10.10;99.90
19389;DHT22;9830;41.876;23.474;2022-12-11T02:20:31;9.90;99.90
19389;DHT22;9830;41.876;23.474;2022-12-11T02:28:21;9.90;99.90
19389;DHT22;9830;41.876;23.474;2022-12-11T02:30:54;9.90;99.90
19389;DHT22;9830;41.876;23.474;2022-12-11T02:33:26;9.80;99.90
19389;DHT22;9830;41.876;23.474;2022-12-11T02:35:54;9.90;99.90
19389;DHT22;9830;41.876;23.474;2022-12-11T02:38:27;10.00;99.90
19389;DHT22;9830;41.876;23.474;2022-12-11T02:40:57;10.10;99.90
19389;DHT22;9830;41.876;23.474;2022-12-11T02:43:24;10.10;99.90
19389;DHT22;9830;41.876;23.474;2022-12-11T02:45:51;10.00;99.90
19389;DHT22;9830;41.876;23.474;2022-12-11T02:48:19;9.90;99.90
19389;DHT22;9830;41.876;23.474;2022-12-11T02:50:50;9.90;99.90
19389;DHT22;9830;41.876;23.474;2022-12-11T02:53:20;9.90;99.90
19389;DHT22;9830;41.876;23.474;2022-12-11T02:55:49;10.00;99.90
19389;DHT22;9830;41.876;23.474;2022-12-11T02:58:27;10.10;99.90
19389;DHT22;9830;41.876;23.474;2022-12-11T03:00:54;10.10;99.90
19389;DHT22;9830;41.876;23.474;2022-12-11T03:03:21;10.10;99.90
19389;DHT22;9830;41.876;23.474;2022-12-11T03:05:47;10.10;99.90
19389;DHT22;9830;41.876;23.474;2022-12-11T03:08:13;10.00;99.90
19389;DHT22;9830;41.876;23.474;2022-12-11T03:10:42;10.00;99.90
19389;DHT22;9830;41.876;23.474;2022-12-11T03:13:07;10.10;99.90
19389;DHT22;9830;41.876;23.474;2022-12-11T03:18:30;10.20;99.90
19389;DHT22;9830;41.876;23.474;2022-12-11T03:21:06;10.20;99.90
19389;DHT22;9830;41.876;23.474;2022-12-11T03:26:23;10.30;99.90
19389;DHT22;9830;41.876;23.474;2022-12-11T03:28:59;10.20;99.90
19389;DHT22;9830;41.876;23.474;2022-12-11T03:31:44;10.20;99.90
19389;DHT22;9830;41.876;23.474;2022-12-11T03:34:18;10.20;99.90
19389;DHT22;9830;41.876;23.474;2022-12-11T03:36:48;10.10;99.90
19389;DHT22;9830;41.876;23.474;2022-12-11T03:39:20;10.10;99.90
19389;DHT22;9830;41.876;23.474;2022-12-11T03:41:50;10.10;99.90
19389;DHT22;9830;41.876;23.474;2022-12-11T03:44:17;10.20;99.90
19389;DHT22;9830;41.876;23.474;2022-12-11T03:46:45;10.30;99.90
19389;DHT22;9830;41.876;23.474;2022-12-11T03:49:23;10.20;99.90
19389;DHT22;9830;41.876;23.474;2022-12-11T03:51:52;10.30;99.90
19389;DHT22;9830;41.876;23.474;2022-12-11T03:54:19;10.30;99.90
19389;DHT22;9830;41.876;23.474;2022-12-11T03:56:46;10.20;99.90
19389;DHT22;9830;41.876;23.474;2022-12-11T03:59:13;10.10;99.90
19389;DHT22;9830;41.876;23.474;2022-12-11T04:01:38;10.00;99.90
19389;DHT22;9830;41.876;23.474;2022-12-11T04:04:04;9.90;99.90
19389;DHT22;9830;41.876;23.474;2022-12-11T04:06:30;9.90;99.90
19389;DHT22;9830;41.876;23.474;2022-12-11T04:08:55;9.90;99.90
19389;DHT22;9830;41.876;23.474;2022-12-11T04:11:21;10.00;99.90
19389;DHT22;9830;41.876;23.474;2022-12-11T04:13:59;9.90;99.90
19389;DHT22;9830;41.876;23.474;2022-12-11T04:16:43;9.90;99.90
19389;DHT22;9830;41.876;23.474;2022-12-11T04:19:09;10.10;99.90
19389;DHT22;9830;41.876;23.474;2022-12-11T04:21:53;10.00;99.90
19389;DHT22;9830;41.876;23.474;2022-12-11T04:24:38;9.90;99.90
19389;DHT22;9830;41.876;23.474;2022-12-11T04:27:03;9.80;99.90
19389;DHT22;9830;41.876;23.474;2022-12-11T04:29:29;9.80;99.90
19389;DHT22;9830;41.876;23.474;2022-12-11T04:31:55;9.80;99.90
19389;DHT22;9830;41.876;23.474;2022-12-11T04:34:20;9.70;99.90
19389;DHT22;9830;41.876;23.474;2022-12-11T04:36:46;9.60;99.90
19389;DHT22;9830;41.876;23.474;2022-12-11T04:39:12;9.90;99.90
19389;DHT22;9830;41.876;23.474;2022-12-11T04:41:37;10.00;99.90
19389;DHT22;9830;41.876;23.474;2022-12-11T04:44:04;10.00;99.90
19389;DHT22;9830;41.876;23.474;2022-12-11T04:46:30;9.90;99.90
19389;DHT22;9830;41.876;23.474;2022-12-11T04:48:56;9.80;99.90
19389;DHT22;9830;41.876;23.474;2022-12-11T04:51:22;9.70;99.90
19389;DHT22;9830;41.876;23.474;2022-12-11T04:53:48;10.00;99.90
19389;DHT22;9830;41.876;23.474;2022-12-11T04:56:14;10.00;99.90
19389;DHT22;9830;41.876;23.474;2022-12-11T04:58:41;10.00;99.90
19389;DHT22;9830;41.876;23.474;2022-12-11T05:01:08;9.90;99.90
19389;DHT22;9830;41.876;23.474;2022-12-11T05:03:34;9.90;99.90
19389;DHT22;9830;41.876;23.474;2022-12-11T05:06:00;9.90;99.90
19389;DHT22;9830;41.876;23.474;2022-12-11T05:08:26;10.10;99.90
19389;DHT22;9830;41.876;23.474;2022-12-11T05:11:02;10.10;99.90
19389;DHT22;9830;41.876;23.474;2022-12-11T05:13:29;10.10;99.90
19389;DHT22;9830;41.876;23.474;2022-12-11T05:15:55;10.20;99.90
19389;DHT22;9830;41.876;23.474;2022-12-11T05:18:22;10.20;99.90
19389;DHT22;9830;41.876;23.474;2022-12-11T05:20:55;10.20;99.90
19389;DHT22;9830;41.876;23.474;2022-12-11T05:23:21;10.10;99.90
19389;DHT22;9830;41.876;23.474;2022-12-11T05:26:01;10.00;99.90
19389;DHT22;9830;41.876;23.474;2022-12-11T05:28:31;10.00;99.90
19389;DHT22;9830;41.876;23.474;2022-12-11T05:30:59;10.00;99.90
19389;DHT22;9830;41.876;23.474;2022-12-11T05:33:25;10.20;99.90
19389;DHT22;9830;41.876;23.474;2022-12-11T05:35:51;10.10;99.90
19389;DHT22;9830;41.876;23.474;2022-12-11T05:38:17;10.00;99.90
19389;DHT22;9830;41.876;23.474;2022-12-11T05:40:43;9.90;99.90
19389;DHT22;9830;41.876;23.474;2022-12-11T05:43:08;9.90;99.90
19389;DHT22;9830;41.876;23.474;2022-12-11T05:45:34;10.00;99.90
19389;DHT22;9830;41.876;23.474;2022-12-11T05:48:00;9.90;99.90
19389;DHT22;9830;41.876;23.474;2022-12-11T05:50:26;9.90;99.90
19389;DHT22;9830;41.876;23.474;2022-12-11T05:52:51;9.90;99.90
19389;DHT22;9830;41.876;23.474;2022-12-11T05:55:17;10.00;99.90
19389;DHT22;9830;41.876;23.474;2022-12-11T05:57:43;9.80;99.90
19389;DHT22;9830;41.876;23.474;2022-12-11T06:00:10;9.70;99.90
19389;DHT22;9830;41.876;23.474;2022-12-11T06:02:36;9.80;99.90
19389;DHT22;9830;41.876;23.474;2022-12-11T06:05:02;10.00;99.90
19389;DHT22;9830;41.876;23.474;2022-12-11T06:07:28;10.00;99.90
19389;DHT22;9830;41.876;23.474;2022-12-11T06:09:53;9.90;99.90
19389;DHT22;9830;41.876;23.474;2022-12-11T06:12:19;9.90;99.90
19389;DHT22;9830;41.876;23.474;2022-12-11T06:14:45;9.80;99.90
19389;DHT22;9830;41.876;23.474;2022-12-11T06:17:10;9.80;99.90
19389;DHT22;9830;41.876;23.474;2022-12-11T06:19:36;9.80;99.90
19389;DHT22;9830;41.876;23.474;2022-12-11T06:22:02;9.90;99.90
19389;DHT22;9830;41.876;23.474;2022-12-11T06:24:27;9.80;99.90
19389;DHT22;9830;41.876;23.474;2022-12-11T06:26:53;9.80;99.90
19389;DHT22;9830;41.876;23.474;2022-12-11T06:29:19;9.80;99.90
19389;DHT22;9830;41.876;23.474;2022-12-11T06:31:45;9.90;99.90
19389;DHT22;9830;41.876;23.474;2022-12-11T06:34:12;9.80;99.90
19389;DHT22;9830;41.876;23.474;2022-12-11T06:36:39;9.80;99.90
19389;DHT22;9830;41.876;23.474;2022-12-11T06:39:04;9.80;99.90
19389;DHT22;9830;41.876;23.474;2022-12-11T06:41:30;9.80;99.90
19389;DHT22;9830;41.876;23.474;2022-12-11T06:43:56;9.70;99.90
19389;DHT22;9830;41.876;23.474;2022-12-11T06:46:21;9.80;99.90
19389;DHT22;9830;41.876;23.474;2022-12-11T06:48:48;9.90;99.90
19389;DHT22;9830;41.876;23.474;2022-12-11T06:51:19;10.10;99.90
19389;DHT22;9830;41.876;23.474;2022-12-11T06:53:50;10.10;99.90
19389;DHT22;9830;41.876;23.474;2022-12-11T06:56:16;10.00;99.90
19389;DHT22;9830;41.876;23.474;2022-12-11T06:58:42;10.00;99.90
19389;DHT22;9830;41.876;23.474;2022-12-11T07:01:23;10.10;99.90
19389;DHT22;9830;41.876;23.474;2022-12-11T07:03:52;10.10;99.90
19389;DHT22;9830;41.876;23.474;2022-12-11T07:06:17;10.20;99.90
19389;DHT22;9830;41.876;23.474;2022-12-11T07:08:43;10.20;99.90
19389;DHT22;9830;41.876;23.474;2022-12-11T07:11:12;10.20;99.90
19389;DHT22;9830;41.876;23.474;2022-12-11T07:13:38;10.20;99.90
19389;DHT22;9830;41.876;23.474;2022-12-11T07:16:04;10.30;99.90
19389;DHT22;9830;41.876;23.474;2022-12-11T07:18:39;10.30;99.90
19389;DHT22;9830;41.876;23.474;2022-12-11T07:21:06;10.40;99.90
19389;DHT22;9830;41.876;23.474;2022-12-11T07:23:34;10.50;99.90
19389;DHT22;9830;41.876;23.474;2022-12-11T07:26:08;10.50;99.90
19389;DHT22;9830;41.876;23.474;2022-12-11T07:28:34;10.60;99.90
19389;DHT22;9830;41.876;23.474;2022-12-11T07:31:08;10.60;99.90
19389;DHT22;9830;41.876;23.474;2022-12-11T07:33:34;10.70;99.90
19389;DHT22;9830;41.876;23.474;2022-12-11T07:36:02;10.90;99.90
19389;DHT22;9830;41.876;23.474;2022-12-11T07:38:28;11.20;99.90
19389;DHT22;9830;41.876;23.474;2022-12-11T07:40:54;11.30;99.90
19389;DHT22;9830;41.876;23.474;2022-12-11T07:43:19;11.20;99.90
19389;DHT22;9830;41.876;23.474;2022-12-11T07:45:45;11.30;99.90
19389;DHT22;9830;41.876;23.474;2022-12-11T07:48:11;11.50;99.90
19389;DHT22;9830;41.876;23.474;2022-12-11T07:50:37;11.40;99.90
19389;DHT22;9830;41.876;23.474;2022-12-11T07:53:03;11.40;99.90
19389;DHT22;9830;41.876;23.474;2022-12-11T07:55:28;11.50;99.90
19389;DHT22;9830;41.876;23.474;2022-12-11T07:57:54;11.60;99.90
19389;DHT22;9830;41.876;23.474;2022-12-11T08:00:20;11.40;99.90
19389;DHT22;9830;41.876;23.474;2022-12-11T08:02:46;11.20;99.90
19389;DHT22;9830;41.876;23.474;2022-12-11T08:05:11;11.30;99.90
19389;DHT22;9830;41.876;23.474;2022-12-11T08:07:37;11.40;99.90
19389;DHT22;9830;41.876;23.474;2022-12-11T08:10:03;11.50;99.90
19389;DHT22;9830;41.876;23.474;2022-12-11T08:12:29;11.30;99.90
19389;DHT22;9830;41.876;23.474;2022-12-11T08:14:56;11.30;99.90
19389;DHT22;9830;41.876;23.474;2022-12-11T08:17:21;11.30;99.90
19389;DHT22;9830;41.876;23.474;2022-12-11T08:19:47;11.20;99.90
19389;DHT22;9830;41.876;23.474;2022-12-11T08:22:13;11.30;99.90
19389;DHT22;9830;41.876;23.474;2022-12-11T08:24:39;11.30;99.90
19389;DHT22;9830;41.876;23.474;2022-12-11T08:27:05;11.30;99.90
19389;DHT22;9830;41.876;23.474;2022-12-11T08:29:31;11.30;99.90
19389;DHT22;9830;41.876;23.474;2022-12-11T08:31:56;11.30;99.90
19389;DHT22;9830;41.876;23.474;2022-12-11T08:34:22;11.20;99.90
19389;DHT22;9830;41.876;23.474;2022-12-11T08:36:48;11.20;99.90
19389;DHT22;9830;41.876;23.474;2022-12-11T08:39:14;11.30;99.90
19389;DHT22;9830;41.876;23.474;2022-12-11T08:41:39;11.30;99.90
19389;DHT22;9830;41.876;23.474;2022-12-11T08:44:10;11.40;99.90
19389;DHT22;9830;41.876;23.474;2022-12-11T08:46:36;11.80;99.90
19389;DHT22;9830;41.876;23.474;2022-12-11T08:49:02;11.70;99.90
19389;DHT22;9830;41.876;23.474;2022-12-11T08:51:29;11.60;99.90
19389;DHT22;9830;41.876;23.474;2022-12-11T08:53:59;11.60;99.90
19389;DHT22;9830;41.876;23.474;2022-12-11T08:56:26;11.70;99.90
19389;DHT22;9830;41.876;23.474;2022-12-11T08:58:53;11.90;99.90
19389;DHT22;9830;41.876;23.474;2022-12-11T09:01:24;12.10;99.90
19389;DHT22;9830;41.876;23.474;2022-12-11T09:03:52;12.20;99.90
19389;DHT22;9830;41.876;23.474;2022-12-11T09:06:21;12.30;99.90
19389;DHT22;9830;41.876;23.474;2022-12-11T09:08:48;12.40;99.90
19389;DHT22;9830;41.876;23.474;2022-12-11T09:11:16;12.50;99.90
19389;DHT22;9830;41.876;23.474;2022-12-11T09:13:42;12.30;99.90
19389;DHT22;9830;41.876;23.474;2022-12-11T09:16:14;12.20;99.90
19389;DHT22;9830;41.876;23.474;2022-12-11T09:18:40;12.10;99.90
19389;DHT22;9830;41.876;23.474;2022-12-11T09:21:09;12.00;99.90
19389;DHT22;9830;41.876;23.474;2022-12-11T09:23:35;12.10;99.90
19389;DHT22;9830;41.876;23.474;2022-12-11T09:26:08;12.10;99.90
19389;DHT22;9830;41.876;23.474;2022-12-11T09:28:36;12.10;99.90
19389;DHT22;9830;41.876;23.474;2022-12-11T09:31:08;12.10;99.90
19389;DHT22;9830;41.876;23.474;2022-12-11T09:33:34;12.10;99.90
19389;DHT22;9830;41.876;23.474;2022-12-11T09:36:00;12.20;99.90
19389;DHT22;9830;41.876;23.474;2022-12-11T09:38:28;12.20;99.90
19389;DHT22;9830;41.876;23.474;2022-12-11T09:40:54;12.00;99.90
19389;DHT22;9830;41.876;23.474;2022-12-11T09:43:45;12.20;99.90
19389;DHT22;9830;41.876;23.474;2022-12-11T09:46:15;12.20;99.90
19389;DHT22;9830;41.876;23.474;2022-12-11T09:48:44;12.20;99.90
19389;DHT22;9830;41.876;23.474;2022-12-11T09:53:44;12.20;99.90
19389;DHT22;9830;41.876;23.474;2022-12-11T09:56:38;12.30;99.90
19389;DHT22;9830;41.876;23.474;2022-12-11T09:59:17;12.30;99.90
19389;DHT22;9830;41.876;23.474;2022-12-11T10:10:41;12.30;99.90
19389;DHT22;9830;41.876;23.474;2022-12-11T10:18:27;12.30;99.90
19389;DHT22;9830;41.876;23.474;2022-12-11T10:20:54;12.40;99.90
19389;DHT22;9830;41.876;23.474;2022-12-11T10:23:26;12.20;99.90
19389;DHT22;9830;41.876;23.474;2022-12-11T10:26:01;12.20;99.90
19389;DHT22;9830;41.876;23.474;2022-12-11T10:28:28;12.10;99.90
19389;DHT22;9830;41.876;23.474;2022-12-11T10:31:14;12.00;99.90
19389;DHT22;9830;41.876;23.474;2022-12-11T10:36:19;11.80;99.90
19389;DHT22;9830;41.876;23.474;2022-12-11T10:38:49;11.70;99.90
19389;DHT22;9830;41.876;23.474;2022-12-11T10:41:40;11.60;99.90
19389;DHT22;9830;41.876;23.474;2022-12-11T10:46:41;11.70;99.90
19389;DHT22;9830;41.876;23.474;2022-12-11T10:51:47;12.00;99.90
19389;DHT22;9830;41.876;23.474;2022-12-11T10:56:58;12.50;99.90
19389;DHT22;9830;41.876;23.474;2022-12-11T10:59:43;12.60;99.90
19389;DHT22;9830;41.876;23.474;2022-12-11T11:04:47;12.40;99.90
19389;DHT22;9830;41.876;23.474;2022-12-11T11:07:14;12.50;99.90
19389;DHT22;9830;41.876;23.474;2022-12-11T11:09:41;12.60;99.90
19389;DHT22;9830;41.876;23.474;2022-12-11T11:14:42;12.40;99.90
19389;DHT22;9830;41.876;23.474;2022-12-11T11:17:15;12.30;99.90
19389;DHT22;9830;41.876;23.474;2022-12-11T11:19:45;12.30;99.90
19389;DHT22;9830;41.876;23.474;2022-12-11T11:22:15;12.20;99.90
19389;DHT22;9830;41.876;23.474;2022-12-11T11:24:46;12.10;99.90
19389;DHT22;9830;41.876;23.474;2022-12-11T11:28:14;12.00;99.90
19389;DHT22;9830;41.876;23.474;2022-12-11T11:30:38;11.90;99.90
19389;DHT22;9830;41.876;23.474;2022-12-11T11:33:13;11.80;99.90
19389;DHT22;9830;41.876;23.474;2022-12-11T11:36:06;11.80;99.90
19389;DHT22;9830;41.876;23.474;2022-12-11T11:38:35;11.70;99.90
19389;DHT22;9830;41.876;23.474;2022-12-11T11:41:12;11.50;99.90
19389;DHT22;9830;41.876;23.474;2022-12-11T11:43:59;11.50;99.90
19389;DHT22;9830;41.876;23.474;2022-12-11T11:46:42;11.50;99.90
19389;DHT22;9830;41.876;23.474;2022-12-11T12:00:06;11.40;99.90
19389;DHT22;9830;41.876;23.474;2022-12-11T12:02:35;11.60;99.90
19389;DHT22;9830;41.876;23.474;2022-12-11T12:05:02;11.80;99.90
19389;DHT22;9830;41.876;23.474;2022-12-11T12:07:51;11.80;99.90
19389;DHT22;9830;41.876;23.474;2022-12-11T12:11:22;11.90;99.90
19389;DHT22;9830;41.876;23.474;2022-12-11T12:13:42;11.80;99.90
19389;DHT22;9830;41.876;23.474;2022-12-11T12:25:26;11.40;99.90
19389;DHT22;9830;41.876;23.474;2022-12-11T12:30:55;11.60;99.90
19389;DHT22;9830;41.876;23.474;2022-12-11T12:38:50;11.80;99.90
19389;DHT22;9830;41.876;23.474;2022-12-11T12:44:17;11.60;99.90
19389;DHT22;9830;41.876;23.474;2022-12-11T12:51:50;11.10;99.90
19389;DHT22;9830;41.876;23.474;2022-12-11T12:54:18;11.00;99.90
19389;DHT22;9830;41.876;23.474;2022-12-11T12:56:46;11.00;99.90
19389;DHT22;9830;41.876;23.474;2022-12-11T12:59:26;10.90;99.90
19389;DHT22;9830;41.876;23.474;2022-12-11T13:02:15;10.90;99.90
19389;DHT22;9830;41.876;23.474;2022-12-11T13:04:42;10.80;99.90
19389;DHT22;9830;41.876;23.474;2022-12-11T13:07:15;10.70;99.90
19389;DHT22;9830;41.876;23.474;2022-12-11T13:09:42;10.70;99.90
19389;DHT22;9830;41.876;23.474;2022-12-11T13:12:14;10.70;99.90
19389;DHT22;9830;41.876;23.474;2022-12-11T13:14:40;10.70;99.90
19389;DHT22;9830;41.876;23.474;2022-12-11T13:19:44;10.80;99.90
19389;DHT22;9830;41.876;23.474;2022-12-11T13:27:39;10.80;99.90
19389;DHT22;9830;41.876;23.474;2022-12-11T13:30:23;10.80;99.90
19389;DHT22;9830;41.876;23.474;2022-12-11T13:33:14;10.80;99.90
19389;DHT22;9830;41.876;23.474;2022-12-11T13:35:42;10.70;99.90
19389;DHT22;9830;41.876;23.474;2022-12-11T13:38:17;10.70;99.90
19389;DHT22;9830;41.876;23.474;2022-12-11T13:40:45;10.70;99.90
19389;DHT22;9830;41.876;23.474;2022-12-11T13:43:21;10.60;99.90
19389;DHT22;9830;41.876;23.474;2022-12-11T13:45:48;10.60;99.90
19389;DHT22;9830;41.876;23.474;2022-12-11T13:48:28;10.60;99.90
19389;DHT22;9830;41.876;23.474;2022-12-11T13:50:56;10.70;99.90
19389;DHT22;9830;41.876;23.474;2022-12-11T13:53:23;10.80;99.90
19389;DHT22;9830;41.876;23.474;2022-12-11T13:56:01;10.80;99.90
19389;DHT22;9830;41.876;23.474;2022-12-11T13:58:29;10.90;99.90
19389;DHT22;9830;41.876;23.474;2022-12-11T14:01:15;10.90;99.90
19389;DHT22;9830;41.876;23.474;2022-12-11T14:04:08;11.00;99.90
19389;DHT22;9830;41.876;23.474;2022-12-11T14:06:33;10.90;99.90
19389;DHT22;9830;41.876;23.474;2022-12-11T14:09:00;10.90;99.90
19389;DHT22;9830;41.876;23.474;2022-12-11T14:11:34;10.90;99.90
19389;DHT22;9830;41.876;23.474;2022-12-11T14:14:03;10.80;99.90
19389;DHT22;9830;41.876;23.474;2022-12-11T14:16:30;10.70;99.90
19389;DHT22;9830;41.876;23.474;2022-12-11T14:19:01;10.60;99.90
19389;DHT22;9830;41.876;23.474;2022-12-11T14:21:28;10.50;99.90
19389;DHT22;9830;41.876;23.474;2022-12-11T14:23:56;10.50;99.90
19389;DHT22;9830;41.876;23.474;2022-12-11T14:26:28;10.30;99.90
19389;DHT22;9830;41.876;23.474;2022-12-11T14:28:55;10.40;99.90
19389;DHT22;9830;41.876;23.474;2022-12-11T14:31:28;10.30;99.90
19389;DHT22;9830;41.876;23.474;2022-12-11T14:34:01;10.20;99.90
19389;DHT22;9830;41.876;23.474;2022-12-11T14:36:28;10.20;99.90
19389;DHT22;9830;41.876;23.474;2022-12-11T14:38:59;10.10;99.90
19389;DHT22;9830;41.876;23.474;2022-12-11T14:41:34;10.10;99.90
19389;DHT22;9830;41.876;23.474;2022-12-11T14:44:06;10.10;99.90
19389;DHT22;9830;41.876;23.474;2022-12-11T14:46:49;10.10;99.90
19389;DHT22;9830;41.876;23.474;2022-12-11T14:51:49;9.80;99.90
19389;DHT22;9830;41.876;23.474;2022-12-11T14:54:29;9.90;99.90
19389;DHT22;9830;41.876;23.474;2022-12-11T14:56:56;9.80;99.90
19389;DHT22;9830;41.876;23.474;2022-12-11T14:59:23;9.80;99.90
19389;DHT22;9830;41.876;23.474;2022-12-11T15:02:27;9.80;99.90
19389;DHT22;9830;41.876;23.474;2022-12-11T15:05:16;9.80;99.90
19389;DHT22;9830;41.876;23.474;2022-12-11T15:08:44;9.80;99.90
19389;DHT22;9830;41.876;23.474;2022-12-11T15:13:23;9.80;99.90
19389;DHT22;9830;41.876;23.474;2022-12-11T15:15:49;9.80;99.90
19389;DHT22;9830;41.876;23.474;2022-12-11T15:18:24;9.70;99.90
19389;DHT22;9830;41.876;23.474;2022-12-11T15:20:56;9.60;99.90
19389;DHT22;9830;41.876;23.474;2022-12-11T15:23:22;9.50;99.90
19389;DHT22;9830;41.876;23.474;2022-12-11T15:25:54;9.60;99.90
19389;DHT22;9830;41.876;23.474;2022-12-11T15:28:37;9.60;99.90
19389;DHT22;9830;41.876;23.474;2022-12-11T15:33:52;9.50;99.90
19389;DHT22;9830;41.876;23.474;2022-12-11T15:38:47;9.40;99.90
19389;DHT22;9830;41.876;23.474;2022-12-11T15:41:15;9.40;99.90
19389;DHT22;9830;41.876;23.474;2022-12-11T15:43:42;9.30;99.90
19389;DHT22;9830;41.876;23.474;2022-12-11T15:46:09;9.30;99.90
19389;DHT22;9830;41.876;23.474;2022-12-11T15:48:35;9.30;99.90
19389;DHT22;9830;41.876;23.474;2022-12-11T15:51:00;9.30;99.90
19389;DHT22;9830;41.876;23.474;2022-12-11T15:53:28;9.20;99.90
19389;DHT22;9830;41.876;23.474;2022-12-11T15:55:54;9.20;99.90
19389;DHT22;9830;41.876;23.474;2022-12-11T15:58:22;9.10;99.90
19389;DHT22;9830;41.876;23.474;2022-12-11T16:00:49;9.10;99.90
19389;DHT22;9830;41.876;23.474;2022-12-11T16:03:16;9.20;99.90
19389;DHT22;9830;41.876;23.474;2022-12-11T16:05:43;9.10;99.90
19389;DHT22;9830;41.876;23.474;2022-12-11T16:08:12;9.20;99.90
19389;DHT22;9830;41.876;23.474;2022-12-11T16:10:40;9.10;99.90
19389;DHT22;9830;41.876;23.474;2022-12-11T16:13:07;9.00;99.90
19389;DHT22;9830;41.876;23.474;2022-12-11T16:15:33;9.00;99.90
19389;DHT22;9830;41.876;23.474;2022-12-11T16:18:04;9.00;99.90
19389;DHT22;9830;41.876;23.474;2022-12-11T16:20:30;9.00;99.90
19389;DHT22;9830;41.876;23.474;2022-12-11T16:22:57;8.90;99.90
19389;DHT22;9830;41.876;23.474;2022-12-11T16:25:24;8.90;99.90
19389;DHT22;9830;41.876;23.474;2022-12-11T16:27:50;9.00;99.90
19389;DHT22;9830;41.876;23.474;2022-12-11T16:30:16;9.00;99.90
19389;DHT22;9830;41.876;23.474;2022-12-11T16:32:42;9.10;99.90
19389;DHT22;9830;41.876;23.474;2022-12-11T16:35:08;9.10;99.90
19389;DHT22;9830;41.876;23.474;2022-12-11T16:37:33;9.00;99.90
19389;DHT22;9830;41.876;23.474;2022-12-11T16:39:59;8.90;99.90
19389;DHT22;9830;41.876;23.474;2022-12-11T16:42:24;8.90;99.90
19389;DHT22;9830;41.876;23.474;2022-12-11T16:44:50;8.90;99.90
19389;DHT22;9830;41.876;23.474;2022-12-11T16:47:16;8.90;99.90
19389;DHT22;9830;41.876;23.474;2022-12-11T16:49:41;9.00;99.90
19389;DHT22;9830;41.876;23.474;2022-12-11T16:52:07;9.00;99.90
19389;DHT22;9830;41.876;23.474;2022-12-11T16:54:33;8.90;99.90
19389;DHT22;9830;41.876;23.474;2022-12-11T16:56:59;8.90;99.90
19389;DHT22;9830;41.876;23.474;2022-12-11T16:59:25;8.80;99.90
19389;DHT22;9830;41.876;23.474;2022-12-11T17:01:50;8.80;99.90
19389;DHT22;9830;41.876;23.474;2022-12-11T17:04:16;8.80;99.90
19389;DHT22;9830;41.876;23.474;2022-12-11T17:06:42;8.90;99.90
19389;DHT22;9830;41.876;23.474;2022-12-11T17:09:08;8.90;99.90
19389;DHT22;9830;41.876;23.474;2022-12-11T17:11:33;8.90;99.90
19389;DHT22;9830;41.876;23.474;2022-12-11T17:13:59;8.90;99.90
19389;DHT22;9830;41.876;23.474;2022-12-11T17:16:26;8.90;99.90
19389;DHT22;9830;41.876;23.474;2022-12-11T17:18:55;8.90;99.90
19389;DHT22;9830;41.876;23.474;2022-12-11T17:21:21;8.90;99.90
19389;DHT22;9830;41.876;23.474;2022-12-11T17:23:48;8.90;99.90
19389;DHT22;9830;41.876;23.474;2022-12-11T17:26:15;8.90;99.90
19389;DHT22;9830;41.876;23.474;2022-12-11T17:28:41;8.80;99.90
19389;DHT22;9830;41.876;23.474;2022-12-11T17:31:09;8.80;99.90
19389;DHT22;9830;41.876;23.474;2022-12-11T17:33:36;8.70;99.90
19389;DHT22;9830;41.876;23.474;2022-12-11T17:36:03;8.80;99.90